sensor_id;sensor_type;location;lat;lon;timestamp;pressure;altitude;pressure_sealevel;temperature;humidity
84224;BME280;74353;51.208;0.304;2024-03-02T00:00:44;99071.91;;;4.94;49.97
84224;BME280;74353;51.208;0.304;2024-03-02T00:03:11;99069.48;;;5.04;50.09
84224;BME280;74353;51.208;0.304;2024-03-02T00:05:36;99069.06;;;4.80;49.98
84224;BME280;74353;51.208;0.304;2024-03-02T00:08:04;99070.05;;;4.87;49.74
84224;BME280;74353;51.208;0.304;2024-03-02T00:10:35;99072.76;;;4.79;49.77
84224;BME280;74353;51.208;0.304;2024-03-02T00:12:54;99068.03;;;4.58;50.15
84224;BME280;74353;51.208;0.304;2024-03-02T00:15:38;99070.84;;;4.89;49.85
84224;BME280;74353;51.208;0.304;2024-03-02T00:17:47;99068.83;;;4.66;49.67
84224;BME280;74353;51.208;0.304;2024-03-02T00:20:17;99073.37;;;4.93;49.51
84224;BME280;74353;51.208;0.304;2024-03-02T00:22:39;99073.03;;;4.90;50.02
84224;BME280;74353;51.208;0.304;2024-03-02T00:25:05;99074.63;;;4.88;50.54
84224;BME280;74353;51.208;0.304;2024-03-02T00:27:34;99075.60;;;5.08;50.40
84224;BME280;74353;51.208;0.304;2024-03-02T00:30:12;99075.29;;;4.76;50.80
84224;BME280;74353;51.208;0.304;2024-03-02T00:32:29;99070.74;;;5.03;50.77
84224;BME280;74353;51.208;0.304;2024-03-02T00:34:55;99069.07;;;4.94;50.36
84224;BME280;74353;51.208;0.304;2024-03-02T00:37:22;99066.83;;;5.11;50.52
84224;BME280;74353;51.208;0.304;2024-03-02T00:39:49;99069.07;;;4.77;50.72
84224;BME280;74353;51.208;0.304;2024-03-02T00:42:15;99070.53;;;5.08;50.80
84224;BME280;74353;51.208;0.304;2024-03-02T00:44:42;99072.15;;;5.06;50.80
84224;BME280;74353;51.208;0.304;2024-03-02T00:47:08;99072.25;;;5.17;50.86
84224;BME280;74353;51.208;0.304;2024-03-02T00:49:33;99070.60;;;4.98;50.90
84224;BME280;74353;51.208;0.304;2024-03-02T00:52:00;99065.41;;;4.87;50.90
84224;BME280;74353;51.208;0.304;2024-03-02T00:54:28;99062.69;;;4.95;50.96
84224;BME280;74353;51.208;0.304;2024-03-02T00:56:53;99064.33;;;5.08;50.88
84224;BME280;74353;51.208;0.304;2024-03-02T00:59:24;99065.69;;;5.04;51.05
84224;BME280;74353;51.208;0.304;2024-03-02T01:01:51;99059.80;;;4.99;51.18
84224;BME280;74353;51.208;0.304;2024-03-02T01:04:17;99058.75;;;5.25;51.31
84224;BME280;74353;51.208;0.304;2024-03-02T01:06:44;99059.40;;;4.90;51.18
84224;BME280;74353;51.208;0.304;2024-03-02T01:09:12;99058.14;;;5.14;51.31
84224;BME280;74353;51.208;0.304;2024-03-02T01:11:39;99059.97;;;5.02;51.74
84224;BME280;74353;51.208;0.304;2024-03-02T01:14:10;99059.57;;;5.18;51.44
84224;BME280;74353;51.208;0.304;2024-03-02T01:16:31;99059.90;;;5.16;51.65
84224;BME280;74353;51.208;0.304;2024-03-02T01:18:57;99058.16;;;5.19;51.61
84224;BME280;74353;51.208;0.304;2024-03-02T01:21:28;99050.50;;;5.34;51.44
84224;BME280;74353;51.208;0.304;2024-03-02T01:23:49;99045.95;;;4.98;51.32
84224;BME280;74353;51.208;0.304;2024-03-02T01:26:16;99048.14;;;5.28;51.57
84224;BME280;74353;51.208;0.304;2024-03-02T01:28:42;99043.89;;;5.43;51.47
84224;BME280;74353;51.208;0.304;2024-03-02T01:31:07;99043.20;;;5.32;51.74
84224;BME280;74353;51.208;0.304;2024-03-02T01:33:35;99043.41;;;5.19;51.64
84224;BME280;74353;51.208;0.304;2024-03-02T01:36:01;99043.70;;;5.47;51.59
84224;BME280;74353;51.208;0.304;2024-03-02T01:38:28;99037.20;;;5.42;51.59
84224;BME280;74353;51.208;0.304;2024-03-02T01:40:56;99032.41;;;5.54;51.34
84224;BME280;74353;51.208;0.304;2024-03-02T01:43:22;99036.61;;;5.48;51.40
84224;BME280;74353;51.208;0.304;2024-03-02T01:45:47;99041.41;;;5.49;51.29
84224;BME280;74353;51.208;0.304;2024-03-02T01:48:12;99040.83;;;5.57;51.27
84224;BME280;74353;51.208;0.304;2024-03-02T01:50:37;99037.31;;;5.33;51.17
84224;BME280;74353;51.208;0.304;2024-03-02T01:53:05;99036.70;;;5.59;51.20
84224;BME280;74353;51.208;0.304;2024-03-02T01:55:38;99034.18;;;5.67;51.05
84224;BME280;74353;51.208;0.304;2024-03-02T01:58:04;99036.44;;;5.30;51.33
84224;BME280;74353;51.208;0.304;2024-03-02T02:00:29;99035.73;;;5.64;51.10
84224;BME280;74353;51.208;0.304;2024-03-02T02:02:55;99040.69;;;5.33;50.74
84224;BME280;74353;51.208;0.304;2024-03-02T02:05:22;99036.81;;;5.30;51.22
84224;BME280;74353;51.208;0.304;2024-03-02T02:07:49;99043.89;;;5.62;51.01
84224;BME280;74353;51.208;0.304;2024-03-02T02:10:15;99042.20;;;5.73;50.92
84224;BME280;74353;51.208;0.304;2024-03-02T02:12:40;99042.45;;;5.64;51.10
84224;BME280;74353;51.208;0.304;2024-03-02T02:17:34;99041.48;;;5.58;51.37
84224;BME280;74353;51.208;0.304;2024-03-02T02:19:59;99038.99;;;5.61;51.30
84224;BME280;74353;51.208;0.304;2024-03-02T02:22:25;99033.42;;;5.64;51.45
84224;BME280;74353;51.208;0.304;2024-03-02T02:24:51;99028.25;;;5.69;51.37
84224;BME280;74353;51.208;0.304;2024-03-02T02:27:16;99029.63;;;5.50;51.40
84224;BME280;74353;51.208;0.304;2024-03-02T02:29:42;99031.28;;;5.54;51.28
84224;BME280;74353;51.208;0.304;2024-03-02T02:32:08;99029.56;;;5.19;51.62
84224;BME280;74353;51.208;0.304;2024-03-02T02:34:35;99023.31;;;5.81;51.38
84224;BME280;74353;51.208;0.304;2024-03-02T02:37:01;99021.35;;;5.72;51.16
84224;BME280;74353;51.208;0.304;2024-03-02T02:39:29;99012.90;;;5.63;51.24
84224;BME280;74353;51.208;0.304;2024-03-02T02:41:54;99012.86;;;5.63;51.10
84224;BME280;74353;51.208;0.304;2024-03-02T02:44:21;99004.56;;;5.98;50.90
84224;BME280;74353;51.208;0.304;2024-03-02T02:46:47;99005.30;;;5.48;50.91
84224;BME280;74353;51.208;0.304;2024-03-02T02:49:12;99000.66;;;5.49;50.86
84224;BME280;74353;51.208;0.304;2024-03-02T02:51:38;99000.22;;;5.66;51.01
84224;BME280;74353;51.208;0.304;2024-03-02T02:54:03;99003.67;;;5.69;51.06
84224;BME280;74353;51.208;0.304;2024-03-02T02:56:32;98999.44;;;5.64;51.31
84224;BME280;74353;51.208;0.304;2024-03-02T02:58:58;98992.97;;;5.61;50.97
84224;BME280;74353;51.208;0.304;2024-03-02T03:01:25;98990.49;;;5.76;51.21
84224;BME280;74353;51.208;0.304;2024-03-02T03:03:53;98988.81;;;5.71;51.33
84224;BME280;74353;51.208;0.304;2024-03-02T03:06:18;98982.82;;;5.85;51.14
84224;BME280;74353;51.208;0.304;2024-03-02T03:08:44;98984.82;;;6.12;51.13
84224;BME280;74353;51.208;0.304;2024-03-02T03:11:09;98985.74;;;6.12;51.09
84224;BME280;74353;51.208;0.304;2024-03-02T03:13:36;98985.48;;;5.74;51.11
84224;BME280;74353;51.208;0.304;2024-03-02T03:16:04;98982.43;;;5.94;50.77
84224;BME280;74353;51.208;0.304;2024-03-02T03:18:31;98980.10;;;5.73;51.18
84224;BME280;74353;51.208;0.304;2024-03-02T03:20:57;98976.55;;;6.20;50.72
84224;BME280;74353;51.208;0.304;2024-03-02T03:23:22;98970.60;;;6.06;51.03
84224;BME280;74353;51.208;0.304;2024-03-02T03:25:48;98964.82;;;6.25;50.99
84224;BME280;74353;51.208;0.304;2024-03-02T03:28:13;98964.43;;;6.14;50.80
84224;BME280;74353;51.208;0.304;2024-03-02T03:30:40;98964.59;;;5.87;50.78
84224;BME280;74353;51.208;0.304;2024-03-02T03:33:05;98959.95;;;6.32;50.70
84224;BME280;74353;51.208;0.304;2024-03-02T03:35:34;98962.36;;;6.43;50.50
84224;BME280;74353;51.208;0.304;2024-03-02T03:38:00;98966.99;;;6.31;50.85
84224;BME280;74353;51.208;0.304;2024-03-02T03:40:25;98963.99;;;5.82;50.96
84224;BME280;74353;51.208;0.304;2024-03-02T03:42:51;98963.18;;;6.10;50.87
84224;BME280;74353;51.208;0.304;2024-03-02T03:45:16;98969.10;;;6.18;50.85
84224;BME280;74353;51.208;0.304;2024-03-02T03:47:42;98974.23;;;5.94;50.87
84224;BME280;74353;51.208;0.304;2024-03-02T03:50:09;98975.90;;;5.90;51.04
84224;BME280;74353;51.208;0.304;2024-03-02T03:52:35;98971.34;;;5.93;51.00
84224;BME280;74353;51.208;0.304;2024-03-02T03:55:04;98968.41;;;6.20;51.01
84224;BME280;74353;51.208;0.304;2024-03-02T03:57:28;98970.05;;;6.56;50.82
84224;BME280;74353;51.208;0.304;2024-03-02T03:59:54;98966.74;;;6.13;50.83
84224;BME280;74353;51.208;0.304;2024-03-02T04:02:20;98961.74;;;6.09;50.89
84224;BME280;74353;51.208;0.304;2024-03-02T04:04:46;98952.24;;;6.15;50.84
84224;BME280;74353;51.208;0.304;2024-03-02T04:07:12;98945.28;;;6.11;50.89
84224;BME280;74353;51.208;0.304;2024-03-02T04:09:40;98945.65;;;6.23;50.73
84224;BME280;74353;51.208;0.304;2024-03-02T04:12:06;98942.08;;;6.29;50.60
84224;BME280;74353;51.208;0.304;2024-03-02T04:14:33;98947.10;;;6.35;50.54
84224;BME280;74353;51.208;0.304;2024-03-02T04:17:04;98947.98;;;6.38;50.64
84224;BME280;74353;51.208;0.304;2024-03-02T04:19:29;98933.99;;;6.26;50.98
84224;BME280;74353;51.208;0.304;2024-03-02T04:21:56;98931.01;;;6.30;51.00
84224;BME280;74353;51.208;0.304;2024-03-02T04:24:21;98946.41;;;6.38;51.02
84224;BME280;74353;51.208;0.304;2024-03-02T04:26:47;98947.60;;;6.34;51.15
84224;BME280;74353;51.208;0.304;2024-03-02T04:29:12;98943.65;;;6.48;50.98
84224;BME280;74353;51.208;0.304;2024-03-02T04:31:39;98936.48;;;6.29;51.40
84224;BME280;74353;51.208;0.304;2024-03-02T04:34:07;98942.44;;;6.67;51.17
84224;BME280;74353;51.208;0.304;2024-03-02T04:36:34;98946.54;;;6.39;51.34
84224;BME280;74353;51.208;0.304;2024-03-02T04:39:03;98941.69;;;6.56;51.15
84224;BME280;74353;51.208;0.304;2024-03-02T04:41:28;98940.59;;;6.42;51.51
84224;BME280;74353;51.208;0.304;2024-03-02T04:43:55;98943.46;;;6.20;51.51
84224;BME280;74353;51.208;0.304;2024-03-02T04:46:22;98945.87;;;6.44;51.54
84224;BME280;74353;51.208;0.304;2024-03-02T04:48:50;98941.45;;;6.60;51.28
84224;BME280;74353;51.208;0.304;2024-03-02T04:51:17;98942.72;;;6.56;51.39
84224;BME280;74353;51.208;0.304;2024-03-02T04:53:45;98935.14;;;6.60;51.39
84224;BME280;74353;51.208;0.304;2024-03-02T04:56:11;98938.94;;;6.68;51.30
84224;BME280;74353;51.208;0.304;2024-03-02T04:58:36;98927.75;;;6.67;51.33
84224;BME280;74353;51.208;0.304;2024-03-02T05:01:03;98924.06;;;6.65;51.42
84224;BME280;74353;51.208;0.304;2024-03-02T05:03:29;98924.46;;;6.80;51.16
84224;BME280;74353;51.208;0.304;2024-03-02T05:05:55;98927.92;;;6.42;51.39
84224;BME280;74353;51.208;0.304;2024-03-02T05:08:20;98923.94;;;6.73;51.15
84224;BME280;74353;51.208;0.304;2024-03-02T05:10:48;98926.32;;;6.70;51.11
84224;BME280;74353;51.208;0.304;2024-03-02T05:13:13;98928.79;;;6.68;51.13
84224;BME280;74353;51.208;0.304;2024-03-02T05:15:39;98932.96;;;6.76;51.02
84224;BME280;74353;51.208;0.304;2024-03-02T05:18:05;98934.28;;;6.66;51.22
84224;BME280;74353;51.208;0.304;2024-03-02T05:20:31;98932.44;;;6.52;51.04
84224;BME280;74353;51.208;0.304;2024-03-02T05:22:55;98928.46;;;6.57;51.00
84224;BME280;74353;51.208;0.304;2024-03-02T05:25:24;98928.44;;;6.69;51.17
84224;BME280;74353;51.208;0.304;2024-03-02T05:27:52;98925.47;;;6.73;51.11
84224;BME280;74353;51.208;0.304;2024-03-02T05:30:19;98922.53;;;6.70;51.15
84224;BME280;74353;51.208;0.304;2024-03-02T05:32:43;98919.34;;;6.49;51.15
84224;BME280;74353;51.208;0.304;2024-03-02T05:35:11;98920.93;;;6.65;51.30
84224;BME280;74353;51.208;0.304;2024-03-02T05:37:38;98916.38;;;6.49;51.20
84224;BME280;74353;51.208;0.304;2024-03-02T05:40:07;98917.14;;;6.81;51.04
84224;BME280;74353;51.208;0.304;2024-03-02T05:42:31;98913.45;;;6.50;51.10
84224;BME280;74353;51.208;0.304;2024-03-02T05:44:56;98901.50;;;6.78;51.01
84224;BME280;74353;51.208;0.304;2024-03-02T05:47:21;98903.30;;;6.53;50.97
84224;BME280;74353;51.208;0.304;2024-03-02T05:49:47;98897.96;;;6.81;50.88
84224;BME280;74353;51.208;0.304;2024-03-02T05:52:14;98898.03;;;6.97;50.58
84224;BME280;74353;51.208;0.304;2024-03-02T05:54:40;98899.17;;;6.60;50.80
84224;BME280;74353;51.208;0.304;2024-03-02T05:57:08;98891.48;;;6.66;50.79
84224;BME280;74353;51.208;0.304;2024-03-02T05:59:33;98896.44;;;6.81;50.97
84224;BME280;74353;51.208;0.304;2024-03-02T06:02:00;98895.66;;;6.68;50.87
84224;BME280;74353;51.208;0.304;2024-03-02T06:04:25;98894.33;;;6.94;50.80
84224;BME280;74353;51.208;0.304;2024-03-02T06:06:51;98895.22;;;6.71;50.74
84224;BME280;74353;51.208;0.304;2024-03-02T06:09:19;98899.62;;;6.95;50.81
84224;BME280;74353;51.208;0.304;2024-03-02T06:11:44;98891.27;;;7.08;50.62
84224;BME280;74353;51.208;0.304;2024-03-02T06:14:11;98896.21;;;7.10;50.63
84224;BME280;74353;51.208;0.304;2024-03-02T06:16:41;98892.08;;;6.72;50.86
84224;BME280;74353;51.208;0.304;2024-03-02T06:19:08;98884.34;;;6.66;51.01
84224;BME280;74353;51.208;0.304;2024-03-02T06:21:34;98890.50;;;7.11;50.79
84224;BME280;74353;51.208;0.304;2024-03-02T06:24:00;98892.93;;;7.09;50.81
84224;BME280;74353;51.208;0.304;2024-03-02T06:26:25;98886.81;;;6.74;51.09
84224;BME280;74353;51.208;0.304;2024-03-02T06:28:52;98883.28;;;6.88;50.86
84224;BME280;74353;51.208;0.304;2024-03-02T06:31:17;98890.35;;;6.89;50.96
84224;BME280;74353;51.208;0.304;2024-03-02T06:33:44;98881.14;;;6.95;50.84
84224;BME280;74353;51.208;0.304;2024-03-02T06:36:11;98877.57;;;7.13;50.99
84224;BME280;74353;51.208;0.304;2024-03-02T06:38:38;98889.92;;;6.93;50.95
84224;BME280;74353;51.208;0.304;2024-03-02T06:41:04;98895.48;;;7.15;51.01
84224;BME280;74353;51.208;0.304;2024-03-02T06:43:29;98900.64;;;6.93;51.02
84224;BME280;74353;51.208;0.304;2024-03-02T06:45:54;98899.42;;;6.99;50.83
84224;BME280;74353;51.208;0.304;2024-03-02T06:48:20;98906.79;;;6.94;50.87
84224;BME280;74353;51.208;0.304;2024-03-02T06:50:45;98904.94;;;7.11;51.02
84224;BME280;74353;51.208;0.304;2024-03-02T06:53:10;98909.79;;;7.28;50.83
84224;BME280;74353;51.208;0.304;2024-03-02T06:55:35;98898.95;;;7.05;50.88
84224;BME280;74353;51.208;0.304;2024-03-02T06:58:00;98900.73;;;7.21;51.10
84224;BME280;74353;51.208;0.304;2024-03-02T07:00:27;98903.59;;;7.33;50.93
84224;BME280;74353;51.208;0.304;2024-03-02T07:02:53;98907.40;;;7.09;51.02
84224;BME280;74353;51.208;0.304;2024-03-02T07:05:19;98900.51;;;6.98;51.29
84224;BME280;74353;51.208;0.304;2024-03-02T07:07:44;98903.04;;;7.19;51.43
84224;BME280;74353;51.208;0.304;2024-03-02T07:10:11;98903.36;;;7.32;51.27
84224;BME280;74353;51.208;0.304;2024-03-02T07:12:36;98902.99;;;7.38;51.20
84224;BME280;74353;51.208;0.304;2024-03-02T07:15:07;98911.33;;;6.80;51.48
84224;BME280;74353;51.208;0.304;2024-03-02T07:17:32;98906.95;;;6.86;51.39
84224;BME280;74353;51.208;0.304;2024-03-02T07:20:00;98916.01;;;6.90;51.33
84224;BME280;74353;51.208;0.304;2024-03-02T07:22:27;98910.87;;;7.18;51.30
84224;BME280;74353;51.208;0.304;2024-03-02T07:24:52;98904.53;;;7.18;51.30
84224;BME280;74353;51.208;0.304;2024-03-02T07:27:20;98904.05;;;7.20;51.18
84224;BME280;74353;51.208;0.304;2024-03-02T07:29:47;98901.99;;;7.12;51.26
84224;BME280;74353;51.208;0.304;2024-03-02T07:32:13;98903.68;;;7.00;50.90
84224;BME280;74353;51.208;0.304;2024-03-02T07:34:40;98903.75;;;7.47;50.81
84224;BME280;74353;51.208;0.304;2024-03-02T07:37:07;98911.69;;;7.44;50.93
84224;BME280;74353;51.208;0.304;2024-03-02T07:39:33;98904.79;;;6.94;51.05
84224;BME280;74353;51.208;0.304;2024-03-02T07:41:59;98901.77;;;7.13;51.26
84224;BME280;74353;51.208;0.304;2024-03-02T07:44:24;98904.74;;;7.40;51.20
84224;BME280;74353;51.208;0.304;2024-03-02T07:46:50;98904.65;;;7.04;50.97
84224;BME280;74353;51.208;0.304;2024-03-02T07:49:15;98905.89;;;7.39;50.74
84224;BME280;74353;51.208;0.304;2024-03-02T07:51:40;98904.50;;;7.24;50.97
84224;BME280;74353;51.208;0.304;2024-03-02T07:54:06;98909.68;;;7.42;51.10
84224;BME280;74353;51.208;0.304;2024-03-02T07:56:32;98911.57;;;7.11;51.13
84224;BME280;74353;51.208;0.304;2024-03-02T07:58:57;98907.68;;;7.23;50.78
84224;BME280;74353;51.208;0.304;2024-03-02T08:01:24;98914.87;;;7.24;50.73
84224;BME280;74353;51.208;0.304;2024-03-02T08:03:50;98910.05;;;7.04;50.63
84224;BME280;74353;51.208;0.304;2024-03-02T08:06:17;98919.18;;;7.59;50.46
84224;BME280;74353;51.208;0.304;2024-03-02T08:08:44;98925.12;;;7.31;50.51
84224;BME280;74353;51.208;0.304;2024-03-02T08:11:10;98931.43;;;7.32;50.49
84224;BME280;74353;51.208;0.304;2024-03-02T08:13:36;98935.54;;;7.17;50.41
84224;BME280;74353;51.208;0.304;2024-03-02T08:16:05;98931.93;;;7.45;50.70
84224;BME280;74353;51.208;0.304;2024-03-02T08:18:35;98935.22;;;7.18;50.23
84224;BME280;74353;51.208;0.304;2024-03-02T08:21:03;98932.49;;;7.57;50.15
84224;BME280;74353;51.208;0.304;2024-03-02T08:23:29;98937.45;;;7.39;49.97
84224;BME280;74353;51.208;0.304;2024-03-02T08:25:54;98947.17;;;7.18;49.88
84224;BME280;74353;51.208;0.304;2024-03-02T08:28:22;98939.11;;;7.29;50.18
84224;BME280;74353;51.208;0.304;2024-03-02T08:30:49;98950.40;;;6.99;50.35
84224;BME280;74353;51.208;0.304;2024-03-02T08:33:14;98955.20;;;7.29;50.38
84224;BME280;74353;51.208;0.304;2024-03-02T08:35:40;98959.51;;;7.27;50.61
84224;BME280;74353;51.208;0.304;2024-03-02T08:38:08;98950.58;;;7.60;50.64
84224;BME280;74353;51.208;0.304;2024-03-02T08:40:36;98958.55;;;7.37;50.72
84224;BME280;74353;51.208;0.304;2024-03-02T08:43:03;98955.91;;;7.37;50.80
84224;BME280;74353;51.208;0.304;2024-03-02T08:45:29;98960.15;;;7.43;50.86
84224;BME280;74353;51.208;0.304;2024-03-02T08:47:57;98964.41;;;7.23;51.02
84224;BME280;74353;51.208;0.304;2024-03-02T08:50:23;98959.26;;;7.73;51.10
84224;BME280;74353;51.208;0.304;2024-03-02T08:52:51;98964.76;;;7.26;51.18
84224;BME280;74353;51.208;0.304;2024-03-02T08:55:18;98953.83;;;7.27;51.23
84224;BME280;74353;51.208;0.304;2024-03-02T08:57:47;98960.03;;;7.28;51.20
84224;BME280;74353;51.208;0.304;2024-03-02T09:00:13;98972.27;;;7.47;50.89
84224;BME280;74353;51.208;0.304;2024-03-02T09:02:39;98968.88;;;7.34;51.18
84224;BME280;74353;51.208;0.304;2024-03-02T09:05:05;98973.23;;;7.65;50.90
84224;BME280;74353;51.208;0.304;2024-03-02T09:07:30;98976.98;;;7.53;50.47
84224;BME280;74353;51.208;0.304;2024-03-02T09:09:58;98964.04;;;7.90;50.12
84224;BME280;74353;51.208;0.304;2024-03-02T09:12:24;98976.39;;;7.78;50.31
84224;BME280;74353;51.208;0.304;2024-03-02T09:14:49;98984.80;;;7.22;50.59
84224;BME280;74353;51.208;0.304;2024-03-02T09:17:16;98978.00;;;7.51;50.62
84224;BME280;74353;51.208;0.304;2024-03-02T09:19:42;98972.94;;;7.43;50.80
84224;BME280;74353;51.208;0.304;2024-03-02T09:22:09;98977.28;;;7.73;50.77
84224;BME280;74353;51.208;0.304;2024-03-02T09:24:35;98976.06;;;7.52;50.81
84224;BME280;74353;51.208;0.304;2024-03-02T09:27:03;98985.71;;;7.62;51.03
84224;BME280;74353;51.208;0.304;2024-03-02T09:29:33;98981.36;;;7.54;51.27
84224;BME280;74353;51.208;0.304;2024-03-02T09:31:59;98979.21;;;7.58;51.19
84224;BME280;74353;51.208;0.304;2024-03-02T09:34:24;98974.93;;;7.66;51.01
84224;BME280;74353;51.208;0.304;2024-03-02T09:36:51;98982.60;;;7.59;51.01
84224;BME280;74353;51.208;0.304;2024-03-02T09:39:17;98986.32;;;7.68;50.91
84224;BME280;74353;51.208;0.304;2024-03-02T09:41:42;98997.40;;;7.37;50.98
84224;BME280;74353;51.208;0.304;2024-03-02T09:44:08;98999.92;;;7.70;50.74
84224;BME280;74353;51.208;0.304;2024-03-02T09:46:35;98994.22;;;7.67;50.69
84224;BME280;74353;51.208;0.304;2024-03-02T09:49:03;98997.82;;;7.55;50.36
84224;BME280;74353;51.208;0.304;2024-03-02T09:51:28;98992.72;;;7.94;49.90
84224;BME280;74353;51.208;0.304;2024-03-02T09:53:56;98994.95;;;7.83;50.04
84224;BME280;74353;51.208;0.304;2024-03-02T09:56:21;98995.41;;;7.87;50.15
84224;BME280;74353;51.208;0.304;2024-03-02T09:58:47;98995.22;;;7.28;50.55
84224;BME280;74353;51.208;0.304;2024-03-02T10:01:16;98997.43;;;7.86;50.52
84224;BME280;74353;51.208;0.304;2024-03-02T10:03:45;99006.85;;;7.89;50.49
84224;BME280;74353;51.208;0.304;2024-03-02T10:06:19;98996.84;;;7.84;50.67
84224;BME280;74353;51.208;0.304;2024-03-02T10:08:43;99003.21;;;7.95;50.59
84224;BME280;74353;51.208;0.304;2024-03-02T10:11:26;99004.44;;;7.64;50.87
84224;BME280;74353;51.208;0.304;2024-03-02T10:13:40;98996.79;;;8.03;50.68
84224;BME280;74353;51.208;0.304;2024-03-02T10:16:12;99002.42;;;8.08;50.83
84224;BME280;74353;51.208;0.304;2024-03-02T10:18:34;99003.19;;;7.97;51.11
84224;BME280;74353;51.208;0.304;2024-03-02T10:23:25;99003.85;;;8.23;50.75
84224;BME280;74353;51.208;0.304;2024-03-02T10:25:52;98996.31;;;8.01;51.02
84224;BME280;74353;51.208;0.304;2024-03-02T10:28:18;98995.57;;;8.35;51.03
84224;BME280;74353;51.208;0.304;2024-03-02T10:30:47;98998.87;;;8.39;50.84
84224;BME280;74353;51.208;0.304;2024-03-02T10:33:11;99000.03;;;8.15;50.68
84224;BME280;74353;51.208;0.304;2024-03-02T10:35:36;98997.98;;;7.81;50.76
84224;BME280;74353;51.208;0.304;2024-03-02T10:38:05;99003.18;;;8.51;50.32
84224;BME280;74353;51.208;0.304;2024-03-02T10:40:35;99005.35;;;7.91;50.53
84224;BME280;74353;51.208;0.304;2024-03-02T10:43:03;99002.62;;;8.05;50.60
84224;BME280;74353;51.208;0.304;2024-03-02T10:45:28;99000.62;;;8.48;50.40
84224;BME280;74353;51.208;0.304;2024-03-02T10:47:54;99008.52;;;8.11;50.20
84224;BME280;74353;51.208;0.304;2024-03-02T10:50:19;99009.88;;;8.20;49.67
84224;BME280;74353;51.208;0.304;2024-03-02T10:52:47;99007.47;;;8.65;49.88
84224;BME280;74353;51.208;0.304;2024-03-02T10:55:13;98999.09;;;8.51;49.62
84224;BME280;74353;51.208;0.304;2024-03-02T10:57:42;99010.83;;;8.40;49.70
84224;BME280;74353;51.208;0.304;2024-03-02T11:00:07;99014.66;;;8.49;49.56
84224;BME280;74353;51.208;0.304;2024-03-02T11:02:31;99000.42;;;8.53;49.83
84224;BME280;74353;51.208;0.304;2024-03-02T11:05:00;99000.20;;;8.72;50.15
84224;BME280;74353;51.208;0.304;2024-03-02T11:07:25;98989.94;;;8.62;50.06
84224;BME280;74353;51.208;0.304;2024-03-02T11:09:55;99000.56;;;8.42;50.27
84224;BME280;74353;51.208;0.304;2024-03-02T11:12:22;99005.95;;;8.57;50.14
84224;BME280;74353;51.208;0.304;2024-03-02T11:14:45;99003.36;;;9.11;50.17
84224;BME280;74353;51.208;0.304;2024-03-02T11:17:14;99011.15;;;8.85;50.36
84224;BME280;74353;51.208;0.304;2024-03-02T11:19:39;99007.24;;;8.87;50.43
84224;BME280;74353;51.208;0.304;2024-03-02T11:22:06;99009.25;;;9.08;49.95
84224;BME280;74353;51.208;0.304;2024-03-02T11:24:33;99010.29;;;9.01;50.15
84224;BME280;74353;51.208;0.304;2024-03-02T11:26:57;99017.16;;;8.95;49.57
84224;BME280;74353;51.208;0.304;2024-03-02T11:31:59;99022.93;;;9.16;49.38
84224;BME280;74353;51.208;0.304;2024-03-02T11:34:28;99030.11;;;8.88;49.43
84224;BME280;74353;51.208;0.304;2024-03-02T11:36:46;99030.85;;;9.13;49.26
84224;BME280;74353;51.208;0.304;2024-03-02T11:39:11;99041.56;;;9.21;48.81
84224;BME280;74353;51.208;0.304;2024-03-02T11:41:36;99057.10;;;9.09;48.75
84224;BME280;74353;51.208;0.304;2024-03-02T11:44:04;99053.84;;;8.87;49.01
84224;BME280;74353;51.208;0.304;2024-03-02T11:46:32;99048.77;;;8.67;48.76
84224;BME280;74353;51.208;0.304;2024-03-02T11:48:57;99054.26;;;8.85;48.80
84224;BME280;74353;51.208;0.304;2024-03-02T11:51:25;99057.62;;;8.94;48.52
84224;BME280;74353;51.208;0.304;2024-03-02T11:53:51;99062.04;;;8.86;48.43
84224;BME280;74353;51.208;0.304;2024-03-02T11:56:18;99057.55;;;8.74;48.58
84224;BME280;74353;51.208;0.304;2024-03-02T11:58:42;99058.40;;;8.85;48.37
84224;BME280;74353;51.208;0.304;2024-03-02T12:01:10;99052.41;;;8.69;48.75
84224;BME280;74353;51.208;0.304;2024-03-02T12:03:35;99055.95;;;8.65;48.92
84224;BME280;74353;51.208;0.304;2024-03-02T12:06:07;99051.75;;;8.64;49.21
84224;BME280;74353;51.208;0.304;2024-03-02T12:08:34;99055.74;;;8.73;49.24
84224;BME280;74353;51.208;0.304;2024-03-02T12:11:02;99056.91;;;8.78;49.44
84224;BME280;74353;51.208;0.304;2024-03-02T12:13:28;99055.46;;;8.80;49.50
84224;BME280;74353;51.208;0.304;2024-03-02T12:15:54;99056.19;;;8.69;49.75
84224;BME280;74353;51.208;0.304;2024-03-02T12:18:19;99061.13;;;8.87;49.51
84224;BME280;74353;51.208;0.304;2024-03-02T12:20:48;99056.75;;;8.78;49.58
84224;BME280;74353;51.208;0.304;2024-03-02T12:23:11;99060.33;;;8.91;49.20
84224;BME280;74353;51.208;0.304;2024-03-02T12:25:36;99055.82;;;8.75;49.43
84224;BME280;74353;51.208;0.304;2024-03-02T12:28:04;99053.32;;;8.74;49.82
84224;BME280;74353;51.208;0.304;2024-03-02T12:30:30;99054.24;;;8.82;50.11
84224;BME280;74353;51.208;0.304;2024-03-02T12:32:56;99055.87;;;8.88;50.56
84224;BME280;74353;51.208;0.304;2024-03-02T12:35:22;99049.95;;;8.97;50.77
84224;BME280;74353;51.208;0.304;2024-03-02T12:37:48;99049.13;;;9.28;51.27
84224;BME280;74353;51.208;0.304;2024-03-02T12:40:14;99051.42;;;9.04;51.12
84224;BME280;74353;51.208;0.304;2024-03-02T12:42:40;99057.73;;;9.47;50.50
84224;BME280;74353;51.208;0.304;2024-03-02T12:45:07;99062.11;;;9.12;50.48
84224;BME280;74353;51.208;0.304;2024-03-02T12:47:31;99064.09;;;9.26;49.97
84224;BME280;74353;51.208;0.304;2024-03-02T12:49:56;99070.29;;;9.57;49.82
84224;BME280;74353;51.208;0.304;2024-03-02T12:52:22;99072.27;;;9.25;49.77
84224;BME280;74353;51.208;0.304;2024-03-02T12:54:50;99078.90;;;9.14;49.80
84224;BME280;74353;51.208;0.304;2024-03-02T12:57:18;99085.59;;;9.09;49.49
84224;BME280;74353;51.208;0.304;2024-03-02T12:59:45;99086.71;;;9.02;49.53
84224;BME280;74353;51.208;0.304;2024-03-02T13:02:17;99086.41;;;9.42;49.20
84224;BME280;74353;51.208;0.304;2024-03-02T13:04:37;99080.37;;;9.11;49.16
84224;BME280;74353;51.208;0.304;2024-03-02T13:07:05;99079.65;;;9.50;48.94
84224;BME280;74353;51.208;0.304;2024-03-02T13:09:31;99069.84;;;9.50;49.30
84224;BME280;74353;51.208;0.304;2024-03-02T13:12:00;99068.00;;;9.91;49.59